createdAt,value
2022-12-10T06:35:41.547Z,-2.70
2022-12-10T06:37:46.777Z,-2.80
2022-12-10T06:39:52.495Z,-2.70
2022-12-10T06:41:59.163Z,-2.60
2022-12-10T06:44:03.246Z,-2.50
2022-12-10T06:46:13.822Z,-2.40
2022-12-10T06:48:17.665Z,-2.30
2022-12-10T06:50:21.525Z,-2.30
2022-12-10T06:52:25.856Z,-2.20
2022-12-10T06:54:30.745Z,-2.10
2022-12-10T06:56:35.012Z,-2.00
2022-12-10T06:58:41.622Z,-2.00
2022-12-10T07:00:46.550Z,-1.90
2022-12-10T07:02:51.066Z,-1.90
2022-12-10T07:04:55.977Z,-1.90
2022-12-10T07:07:00.000Z,-1.90
2022-12-10T07:09:04.297Z,-1.80
2022-12-10T07:11:10.165Z,-1.80
2022-12-10T07:13:14.566Z,-1.80
2022-12-10T07:15:18.661Z,-1.70
2022-12-10T07:17:22.866Z,-1.70
2022-12-10T07:19:27.845Z,-1.60
2022-12-10T07:21:36.619Z,-1.60
2022-12-10T07:23:41.556Z,-1.50
2022-12-10T07:25:46.068Z,-1.40
2022-12-10T07:27:51.698Z,-1.40
2022-12-10T07:29:59.866Z,-1.50
2022-12-10T07:32:05.137Z,-1.70
2022-12-10T07:34:09.056Z,-1.70
2022-12-10T07:36:15.578Z,-1.50
2022-12-10T07:38:20.197Z,-1.50
2022-12-10T07:40:27.606Z,-1.50
2022-12-10T07:42:31.945Z,-1.40
2022-12-10T07:44:35.646Z,-1.40
2022-12-10T07:46:41.564Z,-1.40
2022-12-10T07:48:46.476Z,-1.40
2022-12-10T07:50:58.914Z,-1.40
2022-12-10T07:53:04.032Z,-1.40
2022-12-10T07:55:08.615Z,-1.20
2022-12-10T07:57:12.306Z,-1.20
2022-12-10T07:59:17.616Z,-1.30
2022-12-10T08:01:25.587Z,-1.20
2022-12-10T08:03:29.805Z,-1.20
2022-12-10T08:05:33.566Z,-1.10
2022-12-10T08:07:37.696Z,-1.10
2022-12-10T08:09:41.958Z,-1.10
2022-12-10T08:11:46.205Z,-1.10
2022-12-10T08:13:56.564Z,-1.00
2022-12-10T08:16:21.817Z,-0.90
2022-12-10T08:18:25.545Z,-0.70
2022-12-10T08:20:29.322Z,-0.60
2022-12-10T08:22:33.367Z,-0.80
2022-12-10T08:24:37.278Z,-0.70
2022-12-10T08:26:41.857Z,-0.80
2022-12-10T08:28:45.992Z,-0.80
2022-12-10T08:30:52.238Z,-0.70
2022-12-10T08:32:56.477Z,-0.80
2022-12-10T08:35:00.905Z,-0.80
2022-12-10T08:37:10.749Z,-0.80
2022-12-10T08:39:20.447Z,-0.50
2022-12-10T08:41:25.666Z,-0.20
2022-12-10T08:43:30.077Z,0.00
2022-12-10T08:45:34.949Z,0.20
2022-12-10T08:47:39.298Z,0.30
2022-12-10T08:49:43.151Z,0.70
2022-12-10T08:51:45.676Z,1.00
2022-12-10T08:53:48.846Z,1.00
2022-12-10T08:55:59.296Z,1.50
2022-12-10T08:58:12.936Z,1.60
2022-12-10T09:00:17.586Z,2.30
2022-12-10T09:02:22.532Z,1.40
2022-12-10T09:04:26.186Z,1.20
2022-12-10T09:06:29.736Z,1.60
2022-12-10T09:08:33.687Z,1.90
2022-12-10T09:10:39.679Z,1.90
2022-12-10T09:12:42.428Z,1.20
2022-12-10T09:14:45.447Z,0.90
2022-12-10T09:16:48.201Z,1.00
2022-12-10T09:18:50.858Z,1.10
2022-12-10T09:20:53.426Z,1.20
2022-12-10T09:22:55.887Z,1.30
2022-12-10T09:24:58.805Z,1.40
2022-12-10T09:27:02.602Z,1.30
2022-12-10T09:29:05.146Z,1.30
2022-12-10T09:31:16.265Z,1.30
2022-12-10T09:33:20.476Z,1.20
2022-12-10T09:35:23.306Z,1.10
2022-12-10T09:37:48.408Z,1.10
2022-12-10T09:40:14.541Z,1.20
2022-12-10T09:42:31.980Z,1.10
2022-12-10T09:45:02.558Z,1.10
2022-12-10T09:47:09.647Z,1.00
2022-12-10T09:49:54.317Z,1.00
2022-12-10T09:52:00.516Z,0.90
2022-12-10T09:54:06.346Z,1.00
2022-12-10T09:56:23.166Z,0.90
2022-12-10T09:58:30.308Z,0.80
2022-12-10T10:00:41.101Z,0.70
2022-12-10T10:02:43.642Z,0.70
2022-12-10T10:04:46.287Z,0.80
2022-12-10T10:06:49.389Z,0.80
2022-12-10T10:08:58.026Z,0.80
2022-12-10T10:11:02.846Z,0.70
2022-12-10T10:13:26.247Z,0.70
2022-12-10T10:15:34.778Z,0.70
2022-12-10T10:39:19.878Z,-0.30
2022-12-10T10:41:24.563Z,-0.30
2022-12-10T10:43:47.276Z,-0.30
2022-12-10T10:45:53.969Z,-0.20
2022-12-10T10:48:17.865Z,-0.20
2022-12-10T10:50:27.507Z,-0.10
2022-12-10T10:52:40.378Z,0.00
2022-12-10T10:54:45.513Z,0.10
2022-12-10T10:56:48.387Z,0.00
2022-12-10T10:59:00.878Z,0.00
2022-12-10T11:01:07.223Z,0.00
2022-12-10T11:03:09.817Z,0.00
2022-12-10T11:05:25.872Z,0.00
2022-12-10T11:07:39.807Z,0.10
2022-12-10T11:09:42.687Z,0.10
2022-12-10T11:11:52.685Z,0.10
2022-12-10T11:13:55.546Z,0.10
2022-12-10T11:16:01.568Z,0.10
2022-12-10T11:18:22.516Z,0.20
2022-12-10T11:20:35.102Z,0.10
2022-12-10T11:22:56.389Z,0.10
2022-12-10T11:25:01.408Z,0.10
2022-12-10T11:27:06.756Z,0.10
2022-12-10T11:29:38.898Z,0.10
2022-12-10T11:32:14.875Z,0.10
2022-12-10T11:34:44.796Z,0.00
2022-12-10T11:37:22.926Z,0.00
2022-12-10T11:39:40.359Z,0.10
2022-12-10T11:42:09.026Z,0.00
2022-12-10T11:44:44.345Z,-0.10
2022-12-10T11:46:59.976Z,0.00
2022-12-10T11:49:02.714Z,0.10
2022-12-10T11:51:20.137Z,0.20
2022-12-10T11:53:47.485Z,0.20
2022-12-10T11:55:58.299Z,0.30
2022-12-10T11:58:34.467Z,0.30
2022-12-10T12:01:06.495Z,0.30
2022-12-10T12:03:52.879Z,0.20
2022-12-10T12:06:27.506Z,0.20
2022-12-10T12:08:44.866Z,0.20
2022-12-10T12:11:03.097Z,0.30
2022-12-10T12:13:29.866Z,0.30
2022-12-10T12:15:52.705Z,0.30
2022-12-10T12:18:23.433Z,0.20
2022-12-10T12:20:49.317Z,0.30
2022-12-10T12:23:02.138Z,0.40
2022-12-10T12:25:18.725Z,0.30
2022-12-10T12:27:29.198Z,0.30
2022-12-10T12:29:53.437Z,0.20
2022-12-10T12:32:12.211Z,0.20
2022-12-10T12:34:28.718Z,0.20
2022-12-10T12:36:35.734Z,0.20
2022-12-10T12:38:54.928Z,0.20
2022-12-10T12:41:11.246Z,0.20
2022-12-10T12:43:44.065Z,0.20
2022-12-10T12:45:54.636Z,0.20
2022-12-10T12:48:40.185Z,0.20
2022-12-10T12:50:45.457Z,0.20
2022-12-10T12:52:58.466Z,0.10
2022-12-10T12:55:07.294Z,0.10
2022-12-10T12:57:25.129Z,0.10
2022-12-10T12:59:44.326Z,0.10
2022-12-10T13:01:59.702Z,0.10
2022-12-10T13:04:05.106Z,0.00
2022-12-10T13:06:35.198Z,0.00
2022-12-10T13:08:51.297Z,0.00
2022-12-10T13:11:19.945Z,-0.10
2022-12-10T13:13:30.611Z,-0.20
2022-12-10T13:15:39.929Z,-0.30
2022-12-10T13:18:05.077Z,-0.40
2022-12-10T13:20:34.333Z,-0.50
2022-12-10T13:22:42.626Z,-0.60
2022-12-10T13:24:49.105Z,-0.70
2022-12-10T13:27:13.057Z,-0.70
2022-12-10T13:29:44.546Z,-0.70
2022-12-10T13:32:06.215Z,-0.80
2022-12-10T13:34:31.765Z,-0.80
2022-12-10T13:36:34.160Z,-1.00
2022-12-10T13:39:00.436Z,-1.00
2022-12-10T13:41:26.818Z,-1.10
2022-12-10T13:43:53.373Z,-1.10
2022-12-10T13:46:23.199Z,-1.20
2022-12-10T13:48:36.455Z,-1.30
2022-12-10T13:51:14.127Z,-1.40
2022-12-10T13:53:17.360Z,-1.40
2022-12-10T13:55:47.827Z,-1.60
2022-12-10T13:58:00.748Z,-1.70
2022-12-10T14:41:08.909Z,-3.90
2022-12-10T14:43:40.326Z,-4.00
2022-12-10T14:46:02.608Z,-3.90
2022-12-10T14:48:09.618Z,-3.80
2022-12-10T14:50:18.057Z,-3.70
2022-12-10T14:52:23.857Z,-3.50
2022-12-10T14:54:36.086Z,-3.20
2022-12-10T14:56:43.948Z,-3.00
2022-12-10T14:59:03.468Z,-2.70
2022-12-10T15:01:08.438Z,-2.50
2022-12-10T15:03:12.972Z,-2.30
2022-12-10T15:05:36.887Z,-2.20
2022-12-10T15:07:41.658Z,-2.70
2022-12-10T15:09:44.706Z,-2.50
2022-12-10T15:11:53.987Z,-2.10
2022-12-10T15:14:07.666Z,-2.10
2022-12-10T15:16:22.003Z,-2.20
2022-12-10T15:18:39.995Z,-2.50
2022-12-10T15:20:51.577Z,-2.50
2022-12-10T15:22:55.017Z,-2.80
2022-12-10T15:24:57.607Z,-3.50
2022-12-10T15:27:00.096Z,-3.40
2022-12-10T15:29:27.985Z,-2.80
2022-12-10T15:31:33.987Z,-2.90
2022-12-10T15:34:01.015Z,-2.50
2022-12-10T15:36:07.345Z,-2.50
2022-12-10T15:38:14.345Z,-2.30
2022-12-10T17:29:12.867Z,-2.80
2022-12-10T17:31:17.923Z,-2.80
2022-12-10T17:33:24.499Z,-2.70
2022-12-10T17:35:27.426Z,-2.60
2022-12-10T17:37:33.198Z,-2.50
2022-12-10T17:39:35.856Z,-2.30
2022-12-10T17:41:39.127Z,-2.20
2022-12-10T17:43:41.996Z,-2.20
2022-12-10T17:45:46.784Z,-2.10
2022-12-10T17:47:51.269Z,-1.90
2022-12-10T17:49:54.977Z,-1.90
2022-12-10T17:52:00.295Z,-1.80
2022-12-10T17:54:02.947Z,-1.80
2022-12-10T17:56:11.946Z,-1.80
2022-12-10T17:58:14.657Z,-1.80
2022-12-10T18:00:21.327Z,-1.90
2022-12-10T18:02:24.697Z,-1.90
2022-12-10T18:04:27.827Z,-1.90
2022-12-10T18:06:32.107Z,-1.90
2022-12-10T18:08:35.176Z,-1.90
2022-12-10T18:10:38.697Z,-1.90
2022-12-10T18:12:41.358Z,-2.00
2022-12-10T18:14:44.465Z,-2.00
2022-12-10T18:16:48.031Z,-2.00
2022-12-10T18:18:50.673Z,-2.00
2022-12-10T18:20:53.327Z,-2.00
2022-12-10T18:22:56.877Z,-2.00
2022-12-10T18:24:59.576Z,-2.00
2022-12-10T18:27:02.846Z,-1.90
2022-12-10T18:29:05.550Z,-1.90
2022-12-10T18:31:13.920Z,-1.70
2022-12-10T18:33:18.636Z,-1.70
2022-12-10T18:35:21.667Z,-1.70
2022-12-10T18:37:23.976Z,-1.60
2022-12-10T18:39:35.038Z,-1.50
2022-12-10T18:41:37.697Z,-1.40
2022-12-10T18:43:40.206Z,-1.40
2022-12-10T18:45:42.814Z,-1.40
2022-12-10T18:47:45.667Z,-1.40
2022-12-10T18:49:48.356Z,-1.40
2022-12-10T18:51:51.352Z,-1.50
2022-12-10T18:53:53.916Z,-1.50
2022-12-10T18:55:56.456Z,-1.60
2022-12-10T18:58:06.253Z,-1.60
2022-12-10T19:00:17.939Z,-1.60
2022-12-10T19:02:20.503Z,-1.60
2022-12-10T19:04:23.336Z,-1.60
2022-12-10T19:06:29.138Z,-1.60
2022-12-10T19:08:34.482Z,-1.60
2022-12-10T19:10:47.656Z,-1.60
2022-12-10T19:12:50.497Z,-1.50
2022-12-10T19:14:53.458Z,-1.50
2022-12-10T19:16:56.025Z,-1.40
2022-12-10T19:19:02.307Z,-1.40
2022-12-10T19:21:04.987Z,-1.40
2022-12-10T19:23:08.338Z,-1.40
2022-12-10T19:25:11.315Z,-1.40
2022-12-10T19:27:14.067Z,-1.50
2022-12-10T19:29:19.911Z,-1.40
2022-12-10T19:31:23.707Z,-1.50
2022-12-10T19:33:26.257Z,-1.50
2022-12-10T19:35:29.516Z,-1.40
2022-12-10T19:37:32.256Z,-1.40
2022-12-10T19:39:36.137Z,-1.50
2022-12-10T19:41:45.626Z,-1.50
2022-12-10T19:43:49.018Z,-1.50
2022-12-10T19:45:51.794Z,-1.60
2022-12-10T19:47:58.487Z,-1.60
2022-12-10T19:50:02.067Z,-1.70
2022-12-10T19:52:05.067Z,-1.80
2022-12-10T19:54:07.808Z,-1.90
2022-12-10T19:56:22.705Z,-2.00
2022-12-10T19:58:26.845Z,-2.10
2022-12-10T20:00:33.666Z,-2.10
2022-12-10T20:02:36.505Z,-2.10
2022-12-10T20:04:39.466Z,-2.20
2022-12-10T20:06:44.108Z,-2.10
2022-12-10T20:08:46.766Z,-2.00
2022-12-10T20:10:50.967Z,-2.00
2022-12-10T20:12:54.168Z,-2.00
2022-12-10T20:14:56.517Z,-1.90
2022-12-10T20:16:59.067Z,-1.90
2022-12-10T20:19:01.526Z,-1.90
2022-12-10T20:21:03.977Z,-1.80
2022-12-10T20:23:07.887Z,-1.80
2022-12-10T20:25:12.329Z,-1.80
